Terminal Aerodrome Forecast
Issued by NWS

Home | Current Version | Previous Version | Graphics & Text | Print | Product List | Glossary On
Versions: 1 2 3 4 5 6 7 8 9 10 11 12 13 14 15 16 17
000
FTUS43 KABR 121121
TAFPIR
TAF
KPIR 121121Z 1212/1312 28009KT P6SM BKN035
     FM121400 26006KT P6SM SCT250
     FM122000 26010KT P6SM FEW250
     FM130500 29015G23KT P6SM FEW250
     FM130800 30020G31KT P6SM SCT200=

USA.gov is the U.S. government's official web portal to all federal, state and local government web resources and services.